Time;durP1;ratioP1;P1;durP2;ratioP2;P2;SDS_P1;SDS_P2;PMS_P1;PMS_P2;Temp;Humidity;BMP_temperature;BMP_pressure;BME280_temperature;BME280_humidity;BME280_pressure;Samples;Min_cycle;Max_cycle;Signal;HPM_P1;HPM_P2
2023/08/09 00:02:41;;;;;;;2.20;2.10;;;;;;;-144.30;60.26;84812.03;5091861;28;20686;-54
2023/08/09 00:05:34;;;;;;;5.30;2.65;;;;;;;-144.30;60.33;84816.00;5091636;28;20192;-55
2023/08/09 00:08:37;;;;;;;2.85;2.63;;;;;;;-144.30;60.64;84825.94;5090436;28;20230;-54
2023/08/09 00:11:27;;;;;;;4.70;2.92;;;;;;;-144.30;60.94;84845.81;5090677;28;20650;-55
2023/08/09 00:14:22;;;;;;;3.38;3.10;;;;;;;-144.30;61.67;84841.84;5092029;28;20195;-51
2023/08/09 00:17:07;;;;;;;2.80;2.60;;;;;;;-144.30;61.91;84873.66;5089548;28;20285;-50
2023/08/09 00:20:07;;;;;;;3.03;2.92;;;;;;;-144.30;62.23;84855.75;5091838;28;20256;-51
2023/08/09 00:23:02;;;;;;;2.75;2.50;;;;;;;-144.30;61.79;84786.19;5091028;28;20242;-50
2023/08/09 00:26:10;;;;;;;3.50;3.30;;;;;;;-144.30;61.46;84839.84;5091380;28;20195;-51
2023/08/09 00:29:03;;;;;;;2.85;2.75;;;;;;;-144.30;61.35;84849.78;5090249;28;20702;-50
2023/08/09 00:31:44;;;;;;;2.97;2.78;;;;;;;-144.30;61.52;84837.88;5091363;28;20199;-51
2023/08/09 00:34:36;;;;;;;4.97;3.25;;;;;;;-144.30;61.93;84816.00;5090703;28;20203;-55
2023/08/09 00:37:30;;;;;;;3.33;3.10;;;;;;;-144.30;62.29;84857.75;5091866;28;20195;-55
2023/08/09 00:40:11;;;;;;;5.38;3.03;;;;;;;-144.30;63.01;84867.69;5090701;28;20607;-50
2023/08/09 00:43:19;;;;;;;2.97;2.70;;;;;;;-144.30;63.31;84885.56;5090424;28;20187;-55
2023/08/09 00:45:53;;;;;;;2.90;2.70;;;;;;;-144.30;63.58;84861.72;5089212;28;20644;-52
2023/08/09 00:48:23;;;;;;;2.78;2.67;;;;;;;-144.30;63.57;84871.66;5089973;28;20263;-51
2023/08/09 00:51:17;;;;;;;3.58;2.88;;;;;;;-144.30;63.96;84921.34;5091229;28;20726;-55
2023/08/09 00:54:04;;;;;;;3.13;2.92;;;;;;;-144.30;64.55;84929.28;5084463;28;20191;-55
2023/08/09 00:56:52;;;;;;;3.92;3.10;;;;;;;-144.30;64.48;84947.19;5091167;28;20238;-50
2023/08/09 00:59:53;;;;;;;2.67;2.47;;;;;;;-144.30;64.04;84935.25;5088269;28;20730;-50
2023/08/09 01:09:02;;;;;;;3.70;3.40;;;;;;;-144.30;64.33;84949.19;5087649;28;20230;-54
2023/08/09 01:12:00;;;;;;;3.30;3.10;;;;;;;-144.30;64.38;84939.25;5090373;28;20723;-55
2023/08/09 01:14:32;;;;;;;3.17;2.92;;;;;;;-144.30;64.25;84895.50;5085376;28;20222;-54
2023/08/09 01:17:22;;;;;;;3.45;3.15;;;;;;;-144.30;64.14;84947.19;5090939;28;20191;-51
2023/08/09 01:20:18;;;;;;;3.03;2.70;;;;;;;-144.30;64.55;84925.31;5088724;28;20689;-50
2023/08/09 01:23:17;;;;;;;3.53;3.28;;;;;;;-144.30;64.04;84959.13;5087791;28;20321;-51
2023/08/09 01:26:09;;;;;;;3.20;3.00;;;;;;;-144.30;63.85;84891.53;5090399;28;20277;-55
2023/08/09 01:29:05;;;;;;;3.72;3.50;;;;;;;-144.30;63.61;84941.22;5090092;28;20259;-55
2023/08/09 01:32:08;;;;;;;3.25;2.95;;;;;;;-144.30;63.55;84923.34;5090290;28;20261;-55
2023/08/09 01:38:21;;;;;;;3.25;3.15;;;;;;;-144.30;64.77;84939.25;5089789;28;20744;-55
2023/08/09 01:41:15;;;;;;;3.88;3.20;;;;;;;-144.30;64.96;84915.38;5090041;28;20286;-50
2023/08/09 01:44:13;;;;;;;3.03;2.92;;;;;;;-144.30;65.40;84943.22;5087800;28;20199;-55
2023/08/09 01:47:08;;;;;;;3.00;2.60;;;;;;;-144.30;65.15;84971.03;5089295;28;20199;-56
2023/08/09 01:50:17;;;;;;;3.35;3.05;;;;;;;-144.30;65.70;84963.09;5088814;28;20262;-55
2023/08/09 01:53:09;;;;;;;3.22;2.85;;;;;;;-144.30;65.74;84963.09;5089212;28;20207;-50
2023/08/09 01:56:15;;;;;;;5.78;2.92;;;;;;;-144.30;66.05;84990.91;5090024;28;20199;-54
2023/08/09 01:59:25;;;;;;;12.25;3.10;;;;;;;-144.30;66.75;84961.09;5087639;28;20298;-55
2023/08/09 02:02:37;;;;;;;3.25;3.13;;;;;;;-144.30;65.89;84994.91;5089978;28;20577;-55
2023/08/09 02:05:27;;;;;;;3.58;3.38;;;;;;;-144.30;66.37;85022.72;5085907;28;20227;-52
2023/08/09 02:11:16;;;;;;;5.25;3.03;;;;;;;-144.30;66.46;85022.72;5087867;28;20195;-55
2023/08/09 02:14:13;;;;;;;3.28;3.08;;;;;;;-144.30;66.34;85030.66;5086826;28;20290;-56
2023/08/09 02:17:15;;;;;;;3.25;3.15;;;;;;;-144.30;66.69;85046.56;5089776;28;20281;-55
2023/08/09 02:20:18;;;;;;;3.43;3.30;;;;;;;-144.30;67.24;85018.75;5088276;28;20287;-52
2023/08/09 02:23:05;;;;;;;3.92;3.63;;;;;;;-144.30;67.21;84994.91;5088949;28;20277;-51
2023/08/09 02:26:29;;;;;;;;;;;;;;;;;;;;;
2023/08/09 02:29:30;;;;;;;4.15;3.85;;;;;;;-144.30;67.74;85058.50;5088569;28;20631;-54
2023/08/09 02:35:33;;;;;;;5.83;4.63;;;;;;;-144.30;68.58;85066.44;5088074;28;20206;-55
2023/08/09 02:38:25;;;;;;;5.13;4.18;;;;;;;-144.30;68.62;85014.78;5086679;28;20575;-53
2023/08/09 02:41:17;;;;;;;3.73;3.53;;;;;;;-144.30;69.07;84931.28;5088696;28;20690;-54
2023/08/09 02:44:13;;;;;;;5.07;3.97;;;;;;;-144.30;69.20;84947.19;5086567;28;20278;-54
2023/08/09 02:47:09;;;;;;;5.00;4.60;;;;;;;-144.30;69.80;85062.47;5086051;28;20206;-54
2023/08/09 02:50:06;;;;;;;5.83;3.87;;;;;;;-144.30;70.13;84980.97;5089496;28;20734;-51
2023/08/09 02:52:56;;;;;;;4.37;3.97;;;;;;;-144.30;70.81;85106.22;5089370;28;20712;-55
2023/08/09 02:55:56;;;;;;;4.10;3.70;;;;;;;-144.30;70.73;85074.41;5089080;28;20202;-55
2023/08/09 02:58:49;;;;;;;4.20;3.83;;;;;;;-144.30;71.28;85102.22;5088597;28;20187;-51
2023/08/09 03:01:36;;;;;;;4.10;3.87;;;;;;;-144.30;72.20;85098.25;5086993;28;20274;-56
2023/08/09 03:04:15;;;;;;;4.50;4.20;;;;;;;-144.30;72.88;85116.16;5086261;28;20667;-54
2023/08/09 03:10:32;;;;;;;4.97;4.57;;;;;;;-144.30;73.99;85173.78;5087478;28;20219;-51
2023/08/09 03:13:17;;;;;;;4.47;4.07;;;;;;;-144.30;74.55;85143.97;5077689;28;20199;-50
2023/08/09 03:15:48;;;;;;;4.93;4.07;;;;;;;-144.30;75.12;85185.72;5088772;28;20200;-50
2023/08/09 03:18:21;;;;;;;5.07;4.70;;;;;;;-144.30;75.20;85169.81;5086152;28;20226;-52
2023/08/09 03:20:57;;;;;;;5.37;3.93;;;;;;;-144.30;75.45;85191.69;5088681;28;20207;-51
2023/08/09 03:23:32;;;;;;;5.47;4.90;;;;;;;-144.30;75.43;85179.75;5086058;28;20284;-55
2023/08/09 03:26:07;;;;;;;5.37;4.97;;;;;;;-144.30;74.72;85138.00;5089849;28;20195;-51
2023/08/09 03:28:45;;;;;;;4.73;4.40;;;;;;;-144.30;74.67;85177.75;5092013;28;20225;-50
2023/08/09 03:31:27;;;;;;;5.13;4.70;;;;;;;-144.30;74.20;85130.06;5088260;28;20203;-51
2023/08/09 03:34:01;;;;;;;6.07;4.67;;;;;;;-144.30;73.97;85151.94;5092206;28;20241;-51
2023/08/09 03:36:58;;;;;;;4.07;3.87;;;;;;;-144.30;73.06;85145.97;5092334;28;20713;-55
2023/08/09 03:39:31;;;;;;;4.77;4.27;;;;;;;-144.30;73.04;85141.97;5090419;28;20203;-55
2023/08/09 03:41:59;;;;;;;5.23;4.90;;;;;;;-144.30;72.95;85143.97;5083938;28;20207;-51
2023/08/09 03:44:29;;;;;;;6.33;5.93;;;;;;;-144.30;72.62;85110.19;5081231;28;20203;-55
2023/08/09 03:47:02;;;;;;;6.03;5.13;;;;;;;-144.30;72.44;85096.25;5088637;28;20195;-55
2023/08/09 03:49:32;;;;;;;6.37;4.90;;;;;;;-144.30;71.75;85092.28;5088781;28;20698;-54
2023/08/09 03:52:06;;;;;;;4.97;4.67;;;;;;;-144.30;71.29;85098.25;5090531;28;20207;-50
2023/08/09 03:54:41;;;;;;;4.90;4.53;;;;;;;-144.30;70.80;85102.22;5088692;28;20206;-51
2023/08/09 03:57:15;;;;;;;4.83;4.53;;;;;;;-144.30;69.96;85066.44;5089460;28;20191;-51
2023/08/09 04:00:04;;;;;;;4.93;4.53;;;;;;;-144.30;69.85;85102.22;5090836;28;20631;-50
2023/08/09 04:02:56;;;;;;;4.77;4.30;;;;;;;-144.30;69.47;85074.41;5092121;28;20695;-52
2023/08/09 04:05:30;;;;;;;4.70;4.40;;;;;;;-144.30;67.25;84923.34;5088404;28;20959;-55
2023/08/09 04:08:01;;;;;;;4.57;4.28;;;;;;;-144.30;62.10;84752.41;5092071;28;20734;-55
2023/08/09 04:11:07;;;;;;;6.47;4.47;;;;;;;-144.30;56.41;84519.88;5091599;28;20687;-55
2023/08/09 04:13:41;;;;;;;4.65;4.25;;;;;;;-144.30;50.31;84184.00;5092054;28;20631;-53
2023/08/09 04:16:28;;;;;;;7.40;4.68;;;;;;;-144.30;46.79;83977.34;5091910;28;20576;-52
2023/08/09 04:18:56;;;;;;;4.43;4.03;;;;;;;-144.30;43.80;83643.50;5091961;28;20286;-52
2023/08/09 04:21:51;;;;;;;4.60;3.65;;;;;;;-144.30;41.13;83454.75;5091414;28;20298;-56
2023/08/09 04:24:28;;;;;;;7.72;5.10;;;;;;;-144.30;38.71;83178.59;5049811;28;20192;-55
2023/08/09 04:27:08;;;;;;;4.05;3.72;;;;;;;-144.30;36.99;83128.94;5050737;28;20630;-50
2023/08/09 04:29:52;;;;;;;5.20;3.38;;;;;;;-144.30;37.28;83005.78;5049861;28;20231;-54
2023/08/09 04:32:39;;;;;;;4.10;3.80;;;;;;;-144.30;35.34;82880.63;5050293;28;20284;-55
2023/08/09 04:35:23;;;;;;;9.90;3.45;;;;;;;-144.30;34.07;82654.16;5049172;28;20193;-55
2023/08/09 04:38:05;;;;;;;4.13;3.83;;;;;;;-144.30;32.54;82455.53;5050196;28;20287;-55
2023/08/09 04:40:52;;;;;;;3.97;3.10;;;;;;;-144.30;31.81;82248.97;5041188;28;20461;-53
2023/08/09 04:43:51;;;;;;;4.13;3.78;;;;;;;-144.30;31.55;82280.75;5030542;28;20634;-56
2023/08/09 04:46:42;;;;;;;4.20;3.30;;;;;;;-144.30;30.96;82088.09;5030951;28;20204;-52
2023/08/09 04:49:24;;;;;;;3.85;3.15;;;;;;;-144.30;30.80;82205.28;5026853;28;20233;-55
2023/08/09 04:52:18;;;;;;;4.80;3.50;;;;;;;-144.30;30.60;82129.81;5029745;28;20197;-52
2023/08/09 04:54:46;;;;;;;4.53;3.83;;;;;;;-144.30;29.92;82030.50;5031049;28;20211;-53
2023/08/09 04:57:35;;;;;;;3.20;3.00;;;;;;;-144.30;29.75;81996.75;5031879;28;20647;-55
2023/08/09 05:00:29;;;;;;;3.28;3.08;;;;;;;-144.30;29.85;82048.38;5029304;28;20205;-55
2023/08/09 05:03:09;;;;;;;3.08;2.70;;;;;;;-144.30;29.46;81841.84;5031098;28;20202;-55
2023/08/09 05:05:54;;;;;;;5.10;3.00;;;;;;;-144.30;29.41;81945.09;5048525;28;20262;-55
2023/08/09 05:08:44;;;;;;;12.40;2.90;;;;;;;-144.30;29.66;81931.22;5050319;28;20243;-51
2023/08/09 05:11:19;;;;;;;2.60;2.42;;;;;;;-144.30;29.48;81929.22;5049840;28;20208;-51
2023/08/09 05:14:10;;;;;;;2.63;2.45;;;;;;;-144.30;29.23;81800.13;5050428;28;20196;-55
2023/08/09 05:16:42;;;;;;;3.22;2.60;;;;;;;-144.30;27.85;81466.53;5050786;28;20200;-55
2023/08/09 05:19:24;;;;;;;4.15;2.30;;;;;;;-144.30;27.77;81349.38;5050725;28;20207;-55
2023/08/09 05:22:21;;;;;;;2.47;2.28;;;;;;;-144.30;27.42;81404.97;5054923;28;20872;-54
2023/08/09 05:25:11;;;;;;;2.08;2.03;;;;;;;-144.30;27.30;81375.19;5090629;28;20207;-52
2023/08/09 05:28:04;;;;;;;3.65;2.10;;;;;;;-144.30;27.18;81279.88;5089676;28;20191;-52
2023/08/09 05:30:40;;;;;;;2.85;2.08;;;;;;;-144.30;26.96;81248.13;5090135;28;20263;-55
2023/08/09 05:33:46;;;;;;;2.17;2.05;;;;;;;-144.30;26.69;81180.59;5090896;28;20191;-52
2023/08/09 05:36:39;;;;;;;2.20;2.10;;;;;;;-144.30;27.18;81164.72;5090274;28;20303;-51
2023/08/09 05:39:08;;;;;;;4.53;2.42;;;;;;;-144.30;26.84;81125.00;5087854;28;20191;-52
2023/08/09 05:44:36;;;;;;;2.90;2.63;;;;;;;-144.30;27.24;81140.91;5087918;28;20199;-53
2023/08/09 05:47:28;;;;;;;2.08;1.98;;;;;;;-144.30;27.73;81450.66;5089751;28;20190;-52
2023/08/09 05:49:57;;;;;;;2.80;2.60;;;;;;;-144.30;28.15;82090.09;5087966;28;20694;-55
2023/08/09 05:52:27;;;;;;;5.85;2.70;;;;;;;-144.30;28.22;81639.28;5089945;28;20229;-52
2023/08/09 05:54:57;;;;;;;2.63;2.42;;;;;;;-144.30;28.34;81595.59;5089224;28;20199;-55
2023/08/09 05:57:25;;;;;;;2.78;2.58;;;;;;;-144.30;28.11;81541.97;5089952;28;20205;-53
2023/08/09 05:59:59;;;;;;;5.75;2.33;;;;;;;-144.30;27.98;81605.53;5089973;28;20199;-53
2023/08/09 06:02:33;;;;;;;2.30;1.98;;;;;;;-144.30;28.14;81637.31;5089960;28;20237;-55
2023/08/09 06:05:05;;;;;;;3.05;2.60;;;;;;;-144.30;27.88;81549.94;5089856;28;20199;-53
2023/08/09 06:07:34;;;;;;;2.80;2.60;;;;;;;-144.30;28.10;81605.53;5089678;28;20252;-53
2023/08/09 06:10:07;;;;;;;4.90;2.10;;;;;;;-144.30;27.81;81528.09;5089858;28;20218;-53
2023/08/09 06:12:41;;;;;;;11.45;2.92;;;;;;;-144.30;27.71;81486.38;5089355;28;20197;-52
2023/08/09 06:15:10;;;;;;;2.15;2.03;;;;;;;-144.30;27.98;81633.31;5089802;28;20237;-52
2023/08/09 06:17:39;;;;;;;6.00;2.92;;;;;;;-144.30;28.17;81536.03;5089849;28;20587;-52
2023/08/09 06:20:14;;;;;;;3.70;2.45;;;;;;;-144.30;27.86;81559.84;5089661;28;20195;-55
2023/08/09 06:22:43;;;;;;;2.97;2.60;;;;;;;-144.30;28.03;81530.06;5089183;28;20233;-56
2023/08/09 06:25:13;;;;;;;5.97;2.25;;;;;;;-144.30;27.84;81458.59;5089522;28;20202;-55
2023/08/09 06:27:45;;;;;;;2.33;2.13;;;;;;;-144.30;27.47;81430.78;5089669;28;20203;-52
2023/08/09 06:30:17;;;;;;;2.10;2.00;;;;;;;-144.30;27.57;81512.19;5089320;28;20219;-53
2023/08/09 06:32:48;;;;;;;2.17;2.08;;;;;;;-144.30;27.54;81488.38;5089068;28;20249;-53
2023/08/09 06:35:20;;;;;;;2.40;2.10;;;;;;;-144.30;27.93;81625.38;5089003;28;20204;-53
2023/08/09 06:37:58;;;;;;;4.70;2.60;;;;;;;-144.30;27.80;81635.31;5089048;28;20588;-52
2023/08/09 06:40:30;;;;;;;4.28;2.90;;;;;;;-144.30;28.08;81692.91;5089339;28;20191;-55
2023/08/09 06:43:02;;;;;;;8.15;6.00;;;;;;;-144.30;28.80;81919.28;5089330;28;20229;-56
2023/08/09 06:45:33;;;;;;;7.18;6.63;;;;;;;-144.30;29.22;82125.84;5089098;28;20633;-56
2023/08/09 06:48:07;;;;;;;2.60;2.33;;;;;;;-144.30;29.40;82215.22;5089396;28;20780;-55
2023/08/09 06:50:37;;;;;;;4.95;4.65;;;;;;;-144.30;29.67;82066.25;5089238;28;20226;-51
2023/08/09 06:53:11;;;;;;;4.88;2.50;;;;;;;-144.30;28.66;81881.56;5089145;28;20230;-54
2023/08/09 06:55:46;;;;;;;2.92;2.58;;;;;;;-144.30;28.35;81788.22;5087900;28;20238;-53
2023/08/09 06:58:20;;;;;;;2.97;2.47;;;;;;;-144.30;28.56;81895.47;5089569;28;20248;-55
2023/08/09 07:00:50;;;;;;;5.20;2.42;;;;;;;-144.30;28.39;81861.69;5088414;28;20649;-51
2023/08/09 07:03:20;;;;;;;3.08;2.40;;;;;;;-144.30;28.78;81907.38;5092780;28;20218;-54
2023/08/09 07:05:50;;;;;;;3.22;2.92;;;;;;;-144.30;28.92;81982.84;5092745;28;20281;-54
2023/08/09 07:08:19;;;;;;;2.78;2.67;;;;;;;-144.30;28.71;81907.38;5092961;28;20209;-51
2023/08/09 07:10:48;;;;;;;2.40;2.30;;;;;;;-144.30;29.21;82094.06;5092621;28;20618;-55
2023/08/09 07:13:18;;;;;;;3.65;3.35;;;;;;;-144.30;29.41;82111.94;5092502;28;20203;-55
2023/08/09 07:15:54;;;;;;;3.72;2.33;;;;;;;-144.30;29.58;82163.56;5092547;28;20234;-52
2023/08/09 07:18:25;;;;;;;3.03;2.60;;;;;;;-144.30;29.70;82169.53;5092748;28;20807;-53
2023/08/09 07:20:57;;;;;;;4.15;2.60;;;;;;;-144.30;29.49;82094.06;5092787;28;20239;-54
2023/08/09 07:23:29;;;;;;;4.03;2.38;;;;;;;-144.30;29.17;82147.69;5092881;28;20235;-55
2023/08/09 07:26:00;;;;;;;2.40;2.30;;;;;;;-144.30;29.11;82012.63;5093093;28;20640;-53
2023/08/09 07:28:30;;;;;;;3.38;3.00;;;;;;;-144.30;28.66;81917.31;5090835;28;20211;-53
2023/08/09 07:31:02;;;;;;;6.18;5.28;;;;;;;-144.30;28.22;81798.16;5090976;28;20250;-52
2023/08/09 07:33:36;;;;;;;3.05;2.70;;;;;;;-144.30;28.53;81990.78;5091627;28;20234;-54
2023/08/09 07:36:07;;;;;;;7.78;2.60;;;;;;;-144.30;28.30;81974.91;5092710;28;20191;-52
2023/08/09 07:38:38;;;;;;;2.50;2.38;;;;;;;-144.30;27.94;81573.75;5092485;28;20278;-55
2023/08/09 07:41:07;;;;;;;2.50;2.28;;;;;;;-144.30;27.47;81756.44;5091717;28;20282;-56
2023/08/09 07:43:35;;;;;;;2.30;2.13;;;;;;;-144.30;27.40;81750.50;5092217;28;20195;-55
2023/08/09 07:46:06;;;;;;;2.20;2.10;;;;;;;-144.30;26.82;81593.63;5092462;28;20221;-51
2023/08/09 07:48:38;;;;;;;3.80;1.98;;;;;;;-144.30;26.46;81387.09;5092138;28;20639;-51
2023/08/09 07:51:11;;;;;;;2.15;2.05;;;;;;;-144.30;26.10;81426.81;5092183;28;20215;-51
2023/08/09 07:53:46;;;;;;;1.88;1.80;;;;;;;-144.30;25.78;81331.50;5092339;28;20277;-53
2023/08/09 07:56:17;;;;;;;2.85;1.88;;;;;;;-144.30;26.23;81428.81;5092193;28;20584;-53
2023/08/09 07:58:50;;;;;;;2.25;1.90;;;;;;;-144.30;26.10;81349.38;5091567;28;20187;-55
2023/08/09 08:01:20;;;;;;;3.05;2.00;;;;;;;-144.30;26.10;81222.28;5091629;28;20597;-55
2023/08/09 08:03:49;;;;;;;3.10;2.33;;;;;;;-144.30;25.90;81067.44;5092062;28;20247;-55
2023/08/09 08:06:22;;;;;;;3.83;2.10;;;;;;;-144.30;25.13;80982.06;5091936;28;20202;-55
2023/08/09 08:08:54;;;;;;;2.10;2.00;;;;;;;-144.30;25.33;81333.50;5092050;28;20236;-55
2023/08/09 08:11:28;;;;;;;3.22;2.20;;;;;;;-144.30;25.83;81256.06;5091495;28;20663;-55
2023/08/09 08:13:59;;;;;;;2.92;2.72;;;;;;;-144.30;26.00;81355.34;5091386;28;20202;-51
2023/08/09 08:16:54;;;;;;;2.63;2.30;;;;;;;-144.30;25.99;81393.06;5091951;28;20210;-53
2023/08/09 08:19:46;;;;;;;4.10;2.03;;;;;;;-144.30;26.09;81365.25;5091214;28;20225;-56
2023/08/09 08:22:51;;;;;;;3.75;2.30;;;;;;;-144.30;26.13;81631.34;5091539;28;20262;-55
2023/08/09 08:25:47;;;;;;;1.80;1.70;;;;;;;-144.30;26.84;81744.53;5091330;28;20202;-51
2023/08/09 08:28:40;;;;;;;2.13;2.03;;;;;;;-144.30;27.30;81905.38;5089193;28;20199;-51
2023/08/09 08:31:29;;;;;;;2.80;1.70;;;;;;;-144.30;27.54;81953.06;5086832;28;20230;-52
2023/08/09 08:34:18;;;;;;;1.50;1.50;;;;;;;-144.30;27.63;81907.38;5089434;28;20206;-55
2023/08/09 08:37:05;;;;;;;3.15;2.10;;;;;;;-144.30;27.79;81897.44;5088025;28;20667;-55
2023/08/09 08:40:16;;;;;;;1.60;1.60;;;;;;;-144.30;27.91;81990.78;5091348;28;20211;-52
2023/08/09 08:43:08;;;;;;;2.30;1.60;;;;;;;-144.30;28.42;82167.53;5091498;28;20199;-55
2023/08/09 08:45:55;;;;;;;1.90;1.80;;;;;;;-144.30;28.73;82123.84;5087961;28;20592;-54
2023/08/09 08:49:05;;;;;;;4.28;1.50;;;;;;;-144.30;28.65;82193.38;5089832;28;20202;-54
2023/08/09 08:52:03;;;;;;;1.50;1.50;;;;;;;-144.30;29.97;82451.56;5090766;28;20230;-50
2023/08/09 08:54:44;;;;;;;2.05;1.20;;;;;;;-144.30;30.77;82616.44;5090877;28;20195;-53
2023/08/09 08:57:40;;;;;;;1.58;1.50;;;;;;;-144.30;30.53;82538.97;5089852;28;20195;-51
2023/08/09 09:00:39;;;;;;;;;;;;;;;;;;;;;
2023/08/09 09:03:18;;;;;;;1.35;1.30;;;;;;;-144.30;30.96;82570.75;5086445;28;20686;-51
2023/08/09 09:05:51;;;;;;;1.98;1.60;;;;;;;-144.30;30.40;82535.00;5088376;28;20196;-55
2023/08/09 09:08:25;;;;;;;1.85;1.80;;;;;;;-144.30;30.25;82515.13;5090865;28;20195;-53
2023/08/09 09:10:59;;;;;;;3.90;2.13;;;;;;;-144.30;30.38;82463.47;5089998;28;20218;-53
2023/08/09 09:13:33;;;;;;;2.22;1.52;;;;;;;-144.30;30.79;82564.78;5090263;28;20195;-53
2023/08/09 09:16:07;;;;;;;1.40;1.40;;;;;;;-144.30;30.95;82640.25;5090739;28;20666;-52
2023/08/09 09:19:03;;;;;;;2.22;1.80;;;;;;;-144.30;31.05;82531.00;5090704;28;20563;-56
2023/08/09 09:21:57;;;;;;;1.73;1.60;;;;;;;-144.30;30.41;82477.38;5090350;28;20227;-54
2023/08/09 09:25:01;;;;;;;;;;;;;;;;;;;;;
2023/08/09 09:27:56;;;;;;;1.67;1.58;;;;;;;-144.30;30.16;82403.91;5050266;28;20200;-51
2023/08/09 09:30:31;;;;;;;1.77;1.60;;;;;;;-144.30;30.72;82614.44;5049897;28;20307;-51
2023/08/09 09:33:08;;;;;;;2.50;2.40;;;;;;;-144.30;31.25;82572.72;5050224;28;20231;-53
2023/08/09 09:35:40;;;;;;;4.72;3.35;;;;;;;-144.30;30.83;82572.72;5050243;28;20247;-52
2023/08/09 09:38:10;;;;;;;2.50;2.30;;;;;;;-144.30;30.44;82566.78;5049988;28;20201;-56
2023/08/09 09:40:40;;;;;;;2.80;1.52;;;;;;;-144.30;31.01;82683.97;5049965;28;20204;-56
2023/08/09 09:43:13;;;;;;;1.42;1.40;;;;;;;-144.30;31.27;82753.50;5050027;28;20230;-53
2023/08/09 09:45:57;;;;;;;1.90;1.80;;;;;;;-144.30;31.73;82747.53;5050270;28;20196;-53
2023/08/09 09:48:31;;;;;;;2.00;1.70;;;;;;;-144.30;31.58;82713.75;5049763;28;20806;-52
2023/08/09 09:51:02;;;;;;;2.35;1.80;;;;;;;-144.30;31.11;82687.94;5049784;28;20220;-55
2023/08/09 09:53:38;;;;;;;3.45;1.90;;;;;;;-144.30;31.73;82747.53;5049980;28;20192;-52
2023/08/09 09:56:07;;;;;;;6.13;3.00;;;;;;;-144.30;32.16;82775.34;5049706;28;20219;-53
2023/08/09 09:58:39;;;;;;;1.50;1.50;;;;;;;-144.30;33.79;82924.31;5049624;28;20201;-51
2023/08/09 10:01:18;;;;;;;1.60;1.60;;;;;;;-144.30;32.82;82970.00;5049604;28;20195;-52
2023/08/09 10:03:51;;;;;;;1.83;1.75;;;;;;;-144.30;33.48;82954.13;5050051;28;20672;-54
2023/08/09 10:06:26;;;;;;;1.60;1.60;;;;;;;-144.30;33.72;83029.59;5049532;28;20822;-55
2023/08/09 10:08:56;;;;;;;2.03;1.80;;;;;;;-144.30;33.70;82987.88;5049522;28;20611;-54
2023/08/09 10:11:28;;;;;;;1.90;1.75;;;;;;;-144.30;33.21;82898.50;5049425;28;20271;-56
2023/08/09 10:13:59;;;;;;;3.80;2.10;;;;;;;-144.30;33.04;82868.69;5049859;28;20250;-53
2023/08/09 10:16:33;;;;;;;4.40;2.00;;;;;;;-144.30;32.76;82765.41;5049327;28;20193;-55
2023/08/09 10:19:05;;;;;;;2.00;1.70;;;;;;;-144.30;31.90;82753.50;5049578;28;20625;-55
2023/08/09 10:21:36;;;;;;;1.88;1.80;;;;;;;-144.30;31.36;82767.38;5049759;28;20204;-52
2023/08/09 10:24:12;;;;;;;2.40;1.83;;;;;;;-144.30;30.57;82739.56;5085958;28;20244;-51
2023/08/09 10:26:44;;;;;;;3.85;1.75;;;;;;;-144.30;30.64;82697.88;5089570;28;20199;-55
2023/08/09 10:29:21;;;;;;;1.95;1.77;;;;;;;-144.30;31.32;82815.06;5089721;28;20559;-55
2023/08/09 10:31:56;;;;;;;2.20;1.42;;;;;;;-144.30;31.66;82928.28;5089462;28;20221;-54
2023/08/09 10:34:36;;;;;;;3.00;1.40;;;;;;;-144.30;31.71;83031.59;5089051;28;20594;-56
2023/08/09 10:37:09;;;;;;;4.18;1.63;;;;;;;-144.30;32.24;83041.53;5089472;28;20331;-52
2023/08/09 10:39:39;;;;;;;1.83;1.63;;;;;;;-144.30;32.42;83119.00;5089296;28;20659;-55
2023/08/09 10:42:09;;;;;;;4.03;2.65;;;;;;;-144.30;32.70;83182.56;5089332;28;20188;-54
2023/08/09 10:44:39;;;;;;;1.48;1.38;;;;;;;-144.30;32.32;83270.00;5089151;28;20663;-55
2023/08/09 10:47:13;;;;;;;1.77;1.67;;;;;;;-144.30;32.63;83285.88;5089416;28;20199;-56
2023/08/09 10:50:10;;;;;;;2.85;1.70;;;;;;;-144.30;32.98;83299.78;5089181;28;20252;-53
2023/08/09 10:52:41;;;;;;;1.70;1.60;;;;;;;-144.30;33.80;83357.41;5089222;28;20195;-51
2023/08/09 10:55:32;;;;;;;1.70;1.60;;;;;;;-144.30;34.11;83327.59;5089934;28;20195;-51
2023/08/09 10:58:03;;;;;;;2.63;1.85;;;;;;;-144.30;33.98;83351.44;5089311;28;20252;-51
2023/08/09 11:00:42;;;;;;;2.63;1.58;;;;;;;-144.30;34.45;83361.38;5088822;28;20226;-54
2023/08/09 11:03:12;;;;;;;1.85;1.75;;;;;;;-144.30;34.63;83379.25;5089300;28;20203;-55
2023/08/09 11:05:43;;;;;;;2.30;1.58;;;;;;;-144.30;33.89;83351.44;5088983;28;20279;-52
2023/08/09 11:08:17;;;;;;;2.30;1.80;;;;;;;-144.30;33.36;83359.41;5089154;28;20294;-55
2023/08/09 11:10:49;;;;;;;1.33;1.33;;;;;;;-144.30;33.94;83405.09;5088687;28;20215;-55
2023/08/09 11:13:22;;;;;;;1.10;1.10;;;;;;;-144.30;33.28;83385.22;5089042;28;20282;-55
2023/08/09 11:15:54;;;;;;;1.48;1.40;;;;;;;-144.30;33.36;83452.78;5089026;28;20282;-51
2023/08/09 11:18:27;;;;;;;1.38;1.20;;;;;;;-144.30;33.66;83462.72;5089035;28;20299;-51
2023/08/09 11:20:57;;;;;;;1.30;1.30;;;;;;;-144.30;33.79;83405.09;5089353;28;20277;-51
2023/08/09 11:23:28;;;;;;;2.17;2.08;;;;;;;-144.30;33.46;83347.47;5088937;28;20304;-56
2023/08/09 11:25:57;;;;;;;2.15;2.05;;;;;;;-144.30;33.36;83401.13;5089185;28;20199;-56
2023/08/09 11:28:31;;;;;;;2.00;1.90;;;;;;;-144.30;33.33;83417.00;5088847;28;20694;-56
2023/08/09 11:31:02;;;;;;;1.85;1.75;;;;;;;-144.30;33.08;83266.03;5088783;28;20659;-54
2023/08/09 11:33:33;;;;;;;1.42;1.42;;;;;;;-144.30;33.17;83377.28;5088632;28;20191;-53
2023/08/09 11:36:05;;;;;;;1.85;1.25;;;;;;;-144.30;32.72;83359.41;5089043;28;20195;-50
2023/08/09 11:38:34;;;;;;;1.52;1.42;;;;;;;-144.30;32.70;83397.16;5088617;28;20252;-54
2023/08/09 11:41:03;;;;;;;1.80;1.70;;;;;;;-144.30;32.97;83379.25;5088461;28;20252;-56
2023/08/09 11:43:34;;;;;;;2.40;1.88;;;;;;;-144.30;33.28;83353.44;5089059;28;20195;-56
2023/08/09 11:46:07;;;;;;;3.42;1.77;;;;;;;-144.30;32.38;83393.16;5090517;28;20205;-57
2023/08/09 11:48:43;;;;;;;1.95;1.85;;;;;;;-144.30;32.49;83333.56;5092269;28;20586;-55
2023/08/09 11:51:17;;;;;;;2.00;1.50;;;;;;;-144.30;32.35;83365.34;5092221;28;20795;-57
2023/08/09 11:53:53;;;;;;;1.67;1.33;;;;;;;-144.30;31.98;83295.81;5092432;28;20205;-55
2023/08/09 11:56:25;;;;;;;1.75;1.10;;;;;;;-144.30;31.81;83335.56;5092090;28;20213;-55
2023/08/09 11:58:57;;;;;;;1.65;1.27;;;;;;;-144.30;31.95;83339.53;5092391;28;20199;-51
2023/08/09 12:01:27;;;;;;;1.77;1.67;;;;;;;-144.30;31.30;83325.63;5092180;28;20230;-55
2023/08/09 12:04:02;;;;;;;2.10;1.38;;;;;;;-144.30;30.95;83381.25;5092246;28;20274;-52
2023/08/09 12:06:39;;;;;;;3.42;1.25;;;;;;;-144.30;31.25;83385.22;5091932;28;20281;-52
2023/08/09 12:09:32;;;;;;;2.38;2.28;;;;;;;-144.30;30.11;83345.50;5091956;28;20287;-51
2023/08/09 12:12:10;;;;;;;2.42;1.45;;;;;;;-144.30;30.21;83389.19;5091903;28;20223;-54
2023/08/09 12:14:40;;;;;;;1.70;1.65;;;;;;;-144.30;32.82;83430.91;5091762;28;20641;-51
2023/08/09 12:17:11;;;;;;;2.85;1.50;;;;;;;-144.30;32.48;83426.94;5092172;28;20199;-51
2023/08/09 12:19:44;;;;;;;2.17;1.83;;;;;;;-144.30;33.02;83315.69;5091702;28;20638;-56
2023/08/09 12:22:15;;;;;;;3.17;2.78;;;;;;;-144.30;32.39;83323.63;5091598;28;20620;-53
2023/08/09 12:24:44;;;;;;;1.50;1.50;;;;;;;-144.30;32.07;83379.25;5091543;28;20274;-52
2023/08/09 12:27:12;;;;;;;1.63;1.33;;;;;;;-144.30;31.32;83327.59;5091752;28;20203;-56
2023/08/09 12:29:44;;;;;;;1.23;1.20;;;;;;;-144.30;31.88;83365.34;5091556;28;20195;-54
2023/08/09 12:32:16;;;;;;;1.60;1.50;;;;;;;-144.30;32.29;83329.59;5091771;28;20226;-50
2023/08/09 12:34:51;;;;;;;1.50;1.40;;;;;;;-144.30;31.82;83325.63;5091634;28;20195;-56
2023/08/09 12:37:22;;;;;;;1.48;1.38;;;;;;;-144.30;32.14;83335.56;5091310;28;20218;-52
2023/08/09 12:39:53;;;;;;;3.42;1.20;;;;;;;-144.30;31.57;83365.34;5091125;28;20285;-57
2023/08/09 12:42:24;;;;;;;1.20;1.20;;;;;;;-144.30;31.25;83349.47;5091248;28;20689;-57
2023/08/09 12:44:57;;;;;;;3.33;1.38;;;;;;;-144.30;31.57;83369.34;5091253;28;20206;-55
2023/08/09 12:47:29;;;;;;;1.30;1.25;;;;;;;-144.30;30.93;83373.31;5091281;28;20235;-55